Kingdom City, Missouri
Current Conditions -  °F | °C
As of 9:54 AM on Friday 31 Oct 2014 (Local Time) from KCOU Reporting Station
Clear Clear  
Wind Chill: 28°   Ceiling: Unl
Heat Index: 38°   Visibility: 10mi
Dew Point: 19°   Wind: 21mph
Humidity: 47%   Direction: 10°N
Pressure: 30.37"   Gusts: 31mph
Location:  38.95°N, 91.94°W
Report Text: KCOU 311454Z 01018G27KT 10SM CLR 03/M07 A3037 RMK AO2 PK WND 35027/1447 SLP287 T00331072 51036
Loading
Personal Weather Stations






























Interactive Weather Map
Tropical Storm Tracking
New forecast layout! Learn more

10-Day Weather Forecast

Advertisements
Track Severe Weather on mobile